Time;durP1;ratioP1;P1;durP2;ratioP2;P2;SDS_P1;SDS_P2;PMS_P1;PMS_P2;Temp;Humidity;BMP_temperature;BMP_pressure;BME280_temperature;BME280_humidity;BME280_pressure;Samples;Min_cycle;Max_cycle;Signal;HPM_P1;HPM_P2
2021/10/20 00:00:48;;;;;;;4.00;3.70;;;12.30;99.90;;;;;;491600;242;28185;-75
2021/10/20 00:02:50;;;;;;;4.20;3.90;;;12.40;99.90;;;;;;491618;241;28212;-76
2021/10/20 00:04:51;;;;;;;4.40;4.00;;;12.50;99.90;;;;;;491618;241;28268;-75
2021/10/20 00:06:52;;;;;;;3.90;3.40;;;12.40;99.90;;;;;;491583;241;28427;-76
2021/10/20 00:08:53;;;;;;;4.30;3.90;;;12.40;99.90;;;;;;491402;241;28751;-76
2021/10/20 00:10:55;;;;;;;3.83;3.53;;;12.50;99.90;;;;;;491549;242;28736;-76
2021/10/20 00:12:56;;;;;;;4.20;3.80;;;12.50;99.90;;;;;;491621;241;28711;-75
2021/10/20 00:14:57;;;;;;;4.23;3.77;;;12.40;99.90;;;;;;491536;242;28159;-75
2021/10/20 00:16:58;;;;;;;4.23;3.77;;;12.40;99.90;;;;;;491557;241;28087;-75
2021/10/20 00:19:00;;;;;;;4.00;3.70;;;12.40;99.90;;;;;;491600;242;28229;-75
2021/10/20 00:21:04;;;;;;;3.37;3.07;;;12.30;99.90;;;;;;491627;242;28050;-76
2021/10/20 00:23:02;;;;;;;3.90;3.60;;;12.30;99.90;;;;;;491396;242;28219;-75
2021/10/20 00:25:03;;;;;;;3.67;3.37;;;12.20;99.90;;;;;;491616;242;28073;-75
2021/10/20 00:27:05;;;;;;;8.00;3.40;;;12.30;99.90;;;;;;491579;241;28165;-75
2021/10/20 00:29:06;;;;;;;3.43;3.13;;;12.30;99.90;;;;;;491590;241;28208;-75
2021/10/20 00:31:07;;;;;;;4.00;3.70;;;12.40;99.90;;;;;;491612;241;28284;-76
2021/10/20 00:33:08;;;;;;;4.03;3.40;;;12.40;99.90;;;;;;491594;241;28677;-75
2021/10/20 00:35:10;;;;;;;4.30;3.87;;;12.30;99.90;;;;;;491591;242;28642;-75
2021/10/20 00:37:11;;;;;;;3.50;3.20;;;12.40;99.90;;;;;;491618;241;28529;-75
2021/10/20 00:39:13;;;;;;;4.30;3.77;;;12.30;99.90;;;;;;491583;241;28181;-76
2021/10/20 00:41:13;;;;;;;3.83;3.53;;;12.30;99.90;;;;;;491598;241;28067;-75
2021/10/20 00:43:15;;;;;;;3.90;3.60;;;12.10;99.90;;;;;;491566;242;28155;-75
2021/10/20 00:45:16;;;;;;;4.00;3.60;;;12.00;99.90;;;;;;491575;241;28110;-75
2021/10/20 00:47:17;;;;;;;4.03;3.27;;;12.00;99.90;;;;;;491601;242;28011;-75
2021/10/20 00:49:18;;;;;;;3.60;3.30;;;11.90;99.90;;;;;;491539;241;28075;-75
2021/10/20 00:51:25;;;;;;;3.60;3.30;;;11.90;99.90;;;;;;491555;242;28161;-76
2021/10/20 00:53:21;;;;;;;3.80;3.50;;;11.90;99.90;;;;;;491202;242;27978;-75
2021/10/20 00:55:22;;;;;;;3.90;3.60;;;11.90;99.90;;;;;;491547;241;28321;-76
2021/10/20 00:57:23;;;;;;;3.57;3.27;;;11.80;99.90;;;;;;491491;242;28539;-75
2021/10/20 00:59:25;;;;;;;6.40;3.20;;;11.90;99.90;;;;;;491542;242;28421;-75
2021/10/20 01:01:26;;;;;;;3.57;3.27;;;11.90;99.90;;;;;;491589;241;28417;-75
2021/10/20 01:03:27;;;;;;;3.73;3.43;;;11.80;99.90;;;;;;491536;241;28089;-75
2021/10/20 01:05:29;;;;;;;3.60;3.30;;;11.90;99.90;;;;;;491595;242;28315;-76
2021/10/20 01:07:30;;;;;;;4.60;4.03;;;11.80;99.90;;;;;;491580;242;27979;-75
2021/10/20 01:09:31;;;;;;;6.93;3.93;;;11.90;99.90;;;;;;491248;242;28055;-75
2021/10/20 01:11:32;;;;;;;4.47;3.70;;;11.80;99.90;;;;;;491505;242;28077;-76
2021/10/20 01:13:34;;;;;;;4.13;3.73;;;11.80;99.90;;;;;;491510;242;28004;-75
2021/10/20 01:15:35;;;;;;;4.07;3.67;;;11.80;99.90;;;;;;491543;241;27994;-76
2021/10/20 01:17:36;;;;;;;3.80;3.50;;;11.80;99.90;;;;;;491526;242;27961;-75
2021/10/20 01:19:37;;;;;;;6.30;3.50;;;11.80;99.90;;;;;;491528;242;28076;-76
2021/10/20 01:21:39;;;;;;;4.60;3.77;;;11.70;99.90;;;;;;491543;242;28541;-75
2021/10/20 01:23:40;;;;;;;3.70;3.43;;;11.80;99.90;;;;;;491475;242;28432;-75
2021/10/20 01:25:41;;;;;;;3.80;3.50;;;11.70;99.90;;;;;;491454;242;28703;-76
2021/10/20 01:27:42;;;;;;;4.13;3.83;;;11.80;99.90;;;;;;491454;242;27588;-75
2021/10/20 01:29:44;;;;;;;3.93;3.57;;;11.70;99.90;;;;;;491417;241;28075;-75
2021/10/20 01:31:45;;;;;;;3.60;3.30;;;11.70;99.90;;;;;;491504;242;27998;-75
2021/10/20 01:33:46;;;;;;;5.43;3.63;;;11.80;99.90;;;;;;491483;242;28070;-75
2021/10/20 01:35:47;;;;;;;4.53;4.13;;;11.90;99.90;;;;;;491525;242;28075;-75
2021/10/20 01:37:49;;;;;;;4.03;3.67;;;11.90;99.90;;;;;;491479;242;28082;-75
2021/10/20 01:39:50;;;;;;;3.90;3.60;;;11.90;99.90;;;;;;491471;242;27953;-75
2021/10/20 01:41:51;;;;;;;3.83;3.53;;;11.90;99.90;;;;;;491518;242;28062;-75
2021/10/20 01:43:52;;;;;;;5.10;4.30;;;11.90;99.90;;;;;;491577;241;28016;-75
2021/10/20 01:45:54;;;;;;;5.27;4.20;;;11.90;99.90;;;;;;491569;242;28535;-75
2021/10/20 01:47:55;;;;;;;4.87;4.00;;;11.90;99.90;;;;;;491576;242;28692;-75
2021/10/20 01:49:56;;;;;;;6.03;4.67;;;11.90;99.90;;;;;;491557;242;28418;-75
2021/10/20 01:51:57;;;;;;;4.57;4.17;;;11.90;99.90;;;;;;491580;242;27875;-75
2021/10/20 01:53:59;;;;;;;4.80;4.13;;;11.90;99.90;;;;;;491583;242;27894;-75
2021/10/20 01:56:00;;;;;;;5.47;4.57;;;11.90;99.90;;;;;;491578;242;27804;-75
2021/10/20 01:58:01;;;;;;;5.67;4.97;;;11.90;99.90;;;;;;491572;242;28040;-74
2021/10/20 02:00:02;;;;;;;4.10;3.80;;;11.90;99.90;;;;;;491537;242;28070;-75
2021/10/20 02:02:04;;;;;;;5.53;3.93;;;11.90;99.90;;;;;;491589;242;28092;-74
2021/10/20 02:04:05;;;;;;;4.30;4.00;;;11.90;99.90;;;;;;491529;242;27948;-75
2021/10/20 02:06:06;;;;;;;4.30;3.90;;;11.80;99.90;;;;;;491491;242;27992;-75
2021/10/20 02:08:07;;;;;;;3.83;3.50;;;11.70;99.90;;;;;;491543;242;27814;-74
2021/10/20 02:10:09;;;;;;;6.80;3.53;;;11.70;99.90;;;;;;491498;242;28438;-75
2021/10/20 02:12:10;;;;;;;4.57;4.17;;;11.70;99.90;;;;;;491423;242;28480;-75
2021/10/20 02:14:11;;;;;;;4.50;4.10;;;11.70;99.90;;;;;;491517;242;28371;-74
2021/10/20 02:16:12;;;;;;;4.70;4.30;;;11.70;99.90;;;;;;491532;242;27974;-75
2021/10/20 02:18:14;;;;;;;5.17;4.27;;;11.70;99.90;;;;;;491560;242;27965;-76
2021/10/20 02:20:15;;;;;;;4.10;3.70;;;11.80;99.90;;;;;;491542;242;28076;-75
2021/10/20 02:22:16;;;;;;;4.33;3.93;;;11.80;99.90;;;;;;491553;241;28074;-75
2021/10/20 02:24:17;;;;;;;3.90;3.60;;;11.80;99.90;;;;;;491552;241;27967;-75
2021/10/20 02:26:19;;;;;;;4.23;3.80;;;11.70;99.90;;;;;;491573;242;28081;-75
2021/10/20 02:28:20;;;;;;;4.57;4.17;;;11.70;99.90;;;;;;491580;242;28318;-75
2021/10/20 02:30:21;;;;;;;4.07;3.53;;;11.70;99.90;;;;;;491561;241;27834;-75
2021/10/20 02:32:22;;;;;;;4.50;4.10;;;11.70;99.90;;;;;;491580;242;27857;-76
2021/10/20 02:34:24;;;;;;;4.57;4.10;;;11.60;99.90;;;;;;491575;241;28736;-75
2021/10/20 02:36:25;;;;;;;5.27;4.07;;;11.70;99.90;;;;;;491549;242;28449;-76
2021/10/20 02:38:26;;;;;;;4.77;4.13;;;11.70;99.90;;;;;;491590;241;28699;-75
2021/10/20 02:40:27;;;;;;;4.60;4.10;;;11.60;99.90;;;;;;491553;241;27945;-76
2021/10/20 02:42:29;;;;;;;6.70;4.47;;;11.60;99.90;;;;;;491562;242;27953;-76
2021/10/20 02:44:30;;;;;;;5.17;4.10;;;11.70;99.90;;;;;;491553;241;27977;-76
2021/10/20 02:46:31;;;;;;;4.80;4.40;;;11.60;99.90;;;;;;491527;241;27983;-76
2021/10/20 02:48:32;;;;;;;4.50;4.10;;;11.70;99.90;;;;;;491572;242;28116;-74
2021/10/20 02:50:34;;;;;;;4.23;3.93;;;11.60;99.90;;;;;;491575;242;27812;-77
2021/10/20 02:52:35;;;;;;;4.53;4.10;;;11.60;99.90;;;;;;491553;241;27998;-76
2021/10/20 02:54:36;;;;;;;4.50;4.10;;;11.60;99.90;;;;;;491581;241;27940;-76
2021/10/20 02:56:37;;;;;;;5.10;4.30;;;11.60;99.90;;;;;;491566;241;28003;-76
2021/10/20 02:58:39;;;;;;;5.37;4.33;;;11.70;99.90;;;;;;491524;242;28428;-76
2021/10/20 03:00:40;;;;;;;4.60;4.20;;;11.60;99.90;;;;;;491573;241;28601;-76
2021/10/20 03:02:41;;;;;;;4.00;3.70;;;11.70;99.90;;;;;;491531;242;28570;-76
2021/10/20 03:04:42;;;;;;;5.03;4.53;;;11.70;99.90;;;;;;491573;242;27854;-76
2021/10/20 03:06:44;;;;;;;5.93;4.20;;;11.70;99.90;;;;;;491564;242;28022;-76
2021/10/20 03:08:45;;;;;;;5.37;4.23;;;11.70;99.90;;;;;;490624;240;28027;-76
2021/10/20 03:10:47;;;;;;;5.20;4.70;;;11.70;99.90;;;;;;490832;241;27873;-76
2021/10/20 03:12:47;;;;;;;3.93;3.63;;;11.70;99.90;;;;;;490800;242;27892;-76
2021/10/20 03:14:49;;;;;;;4.43;4.10;;;11.60;99.90;;;;;;491146;242;27965;-76
2021/10/20 03:16:50;;;;;;;7.97;5.80;;;11.70;99.90;;;;;;491502;241;27972;-76
2021/10/20 03:18:51;;;;;;;5.17;4.67;;;11.80;99.90;;;;;;491562;242;27819;-76
2021/10/20 03:20:52;;;;;;;5.67;5.17;;;11.80;99.90;;;;;;491551;242;27842;-76
2021/10/20 03:22:54;;;;;;;5.40;5.00;;;11.90;99.90;;;;;;491531;241;28448;-76
2021/10/20 03:24:55;;;;;;;5.80;5.20;;;11.90;99.90;;;;;;491519;242;28462;-76
2021/10/20 03:26:56;;;;;;;6.63;4.67;;;11.90;99.90;;;;;;491551;242;28598;-75
2021/10/20 03:28:57;;;;;;;5.23;4.77;;;11.90;99.90;;;;;;491572;241;27970;-76
2021/10/20 03:30:59;;;;;;;5.37;4.73;;;11.80;99.90;;;;;;491554;241;27959;-76
2021/10/20 03:33:00;;;;;;;5.67;4.93;;;11.90;99.90;;;;;;491555;242;27978;-76
2021/10/20 03:35:01;;;;;;;5.53;4.90;;;11.80;99.90;;;;;;491546;242;27998;-76
2021/10/20 03:37:02;;;;;;;5.33;4.83;;;11.80;99.90;;;;;;491573;241;28196;-76
2021/10/20 03:39:04;;;;;;;5.93;5.37;;;11.80;99.90;;;;;;491524;241;28105;-76
2021/10/20 03:41:05;;;;;;;6.77;5.13;;;11.80;99.90;;;;;;491542;242;28097;-76
2021/10/20 03:43:06;;;;;;;6.07;5.47;;;11.90;99.90;;;;;;491533;241;28090;-77
2021/10/20 03:45:07;;;;;;;6.60;5.60;;;12.00;99.90;;;;;;491566;242;28106;-76
2021/10/20 03:47:09;;;;;;;5.50;5.00;;;12.00;99.90;;;;;;491553;241;28697;-76
2021/10/20 03:49:10;;;;;;;6.07;5.47;;;12.00;99.90;;;;;;491577;242;28680;-76
2021/10/20 03:51:11;;;;;;;5.97;5.37;;;12.10;99.90;;;;;;491550;242;28798;-76
2021/10/20 03:53:12;;;;;;;5.70;5.10;;;12.00;99.90;;;;;;491582;242;28046;-76
2021/10/20 03:55:14;;;;;;;10.90;5.77;;;12.00;99.90;;;;;;491569;242;28062;-76
2021/10/20 03:57:15;;;;;;;7.10;5.73;;;12.10;99.90;;;;;;491588;241;28166;-75
2021/10/20 03:59:16;;;;;;;7.20;6.33;;;12.10;99.90;;;;;;491555;242;28153;-76
2021/10/20 04:01:17;;;;;;;5.77;5.17;;;12.00;99.90;;;;;;491577;242;27760;-76
2021/10/20 04:03:19;;;;;;;6.47;5.70;;;12.00;99.90;;;;;;491588;242;28158;-75
2021/10/20 04:05:20;;;;;;;6.27;5.60;;;12.00;99.90;;;;;;491571;242;28008;-76
2021/10/20 04:07:21;;;;;;;5.90;4.90;;;12.00;99.90;;;;;;491574;242;28070;-76
2021/10/20 04:09:22;;;;;;;5.10;4.70;;;12.00;99.90;;;;;;491550;242;28082;-76
2021/10/20 04:11:24;;;;;;;6.10;5.20;;;12.00;99.90;;;;;;491554;241;28522;-73
2021/10/20 04:13:25;;;;;;;6.83;5.83;;;12.00;99.90;;;;;;491560;241;28501;-76
2021/10/20 04:15:26;;;;;;;14.93;5.77;;;12.10;99.90;;;;;;491715;241;28696;-75
2021/10/20 04:17:27;;;;;;;6.40;5.83;;;12.10;99.90;;;;;;491716;241;28135;-75
2021/10/20 04:19:29;;;;;;;5.07;4.57;;;12.20;99.90;;;;;;491588;241;28333;-75
2021/10/20 04:21:30;;;;;;;6.23;5.50;;;12.20;99.90;;;;;;491600;241;28144;-74
2021/10/20 04:23:31;;;;;;;6.00;5.30;;;12.10;99.90;;;;;;491619;242;27953;-75
2021/10/20 04:25:32;;;;;;;5.53;4.93;;;12.00;99.90;;;;;;491632;241;28026;-75
2021/10/20 04:27:34;;;;;;;5.50;5.00;;;12.10;99.90;;;;;;491619;242;28071;-75
2021/10/20 04:29:35;;;;;;;6.50;5.30;;;12.10;99.90;;;;;;491607;242;28021;-75
2021/10/20 04:31:36;;;;;;;6.83;5.37;;;12.00;99.90;;;;;;491615;242;28292;-74
2021/10/20 04:33:37;;;;;;;5.73;5.23;;;12.10;99.90;;;;;;491624;241;28645;-75
2021/10/20 04:35:39;;;;;;;6.37;5.50;;;12.00;99.90;;;;;;491608;242;28688;-74
2021/10/20 04:37:40;;;;;;;6.50;5.73;;;12.00;99.90;;;;;;491571;242;28852;-75
2021/10/20 04:39:41;;;;;;;6.00;5.40;;;12.00;99.90;;;;;;491571;242;28032;-75
2021/10/20 04:41:42;;;;;;;6.17;5.57;;;12.10;99.90;;;;;;491617;242;28159;-75
2021/10/20 04:43:44;;;;;;;6.47;5.87;;;12.00;99.90;;;;;;491597;241;27947;-75
2021/10/20 04:45:45;;;;;;;7.83;5.97;;;12.00;99.90;;;;;;491580;242;28054;-75
2021/10/20 04:47:46;;;;;;;6.30;5.30;;;12.00;99.90;;;;;;491597;242;27980;-75
2021/10/20 04:49:47;;;;;;;7.43;4.90;;;12.00;99.90;;;;;;491581;242;28073;-75
2021/10/20 04:51:49;;;;;;;7.10;5.53;;;11.90;99.90;;;;;;491617;242;27947;-75
2021/10/20 04:53:50;;;;;;;6.30;5.70;;;11.90;99.90;;;;;;491634;242;27983;-75
2021/10/20 04:55:51;;;;;;;7.07;5.40;;;11.90;99.90;;;;;;491582;241;28112;-75
2021/10/20 04:57:52;;;;;;;6.10;5.37;;;11.90;99.90;;;;;;491747;241;28020;-76
2021/10/20 04:59:54;;;;;;;6.63;5.97;;;11.90;99.90;;;;;;491753;242;28137;-76
2021/10/20 05:01:55;;;;;;;6.10;5.50;;;11.90;99.90;;;;;;491556;242;28057;-76
2021/10/20 05:03:56;;;;;;;7.47;5.43;;;11.90;99.90;;;;;;491571;242;28063;-76
2021/10/20 05:05:58;;;;;;;5.90;5.40;;;12.00;99.90;;;;;;491618;242;28131;-76
2021/10/20 05:07:59;;;;;;;5.43;4.93;;;12.00;99.90;;;;;;491489;241;27997;-75
2021/10/20 05:10:00;;;;;;;6.37;5.80;;;12.00;99.90;;;;;;491583;242;28126;-76
2021/10/20 05:12:01;;;;;;;5.50;5.00;;;12.00;99.90;;;;;;491577;242;28160;-76
2021/10/20 05:14:03;;;;;;;6.10;5.50;;;11.90;99.90;;;;;;491515;240;28223;-76
2021/10/20 05:16:04;;;;;;;8.30;5.70;;;11.90;99.90;;;;;;491556;242;28503;-76
2021/10/20 05:18:05;;;;;;;6.43;5.70;;;11.90;99.90;;;;;;491561;241;28764;-76
2021/10/20 05:20:07;;;;;;;5.90;5.30;;;12.00;99.90;;;;;;491562;241;28740;-76
2021/10/20 05:22:08;;;;;;;7.10;6.13;;;11.90;99.90;;;;;;491512;242;28672;-76
2021/10/20 05:24:09;;;;;;;6.63;5.90;;;11.90;99.90;;;;;;491569;242;28102;-76
2021/10/20 05:26:10;;;;;;;6.80;6.10;;;11.90;99.90;;;;;;491570;242;28124;-76
2021/10/20 05:28:11;;;;;;;6.47;5.87;;;11.90;99.90;;;;;;491557;241;28099;-76
2021/10/20 05:30:13;;;;;;;6.80;6.10;;;11.80;99.90;;;;;;491564;242;27986;-76
2021/10/20 05:32:14;;;;;;;6.90;5.73;;;11.90;99.90;;;;;;491533;242;28232;-76
2021/10/20 05:34:15;;;;;;;7.87;6.30;;;12.00;99.90;;;;;;491559;242;28326;-76
2021/10/20 05:36:16;;;;;;;6.47;5.80;;;12.00;99.90;;;;;;491547;242;28060;-76
2021/10/20 05:38:18;;;;;;;6.27;5.63;;;12.00;99.90;;;;;;491548;242;27971;-76
2021/10/20 05:40:19;;;;;;;6.87;6.27;;;12.00;99.90;;;;;;491542;242;28352;-76
2021/10/20 05:42:20;;;;;;;6.90;6.10;;;12.10;99.90;;;;;;491545;242;28594;-76
2021/10/20 05:44:21;;;;;;;8.20;6.43;;;12.00;99.90;;;;;;491528;242;28459;-76
2021/10/20 05:46:23;;;;;;;6.73;5.93;;;12.10;99.90;;;;;;491557;242;28478;-76
2021/10/20 05:48:24;;;;;;;7.80;6.70;;;12.10;99.90;;;;;;491559;241;28210;-76
2021/10/20 05:50:25;;;;;;;8.23;6.80;;;12.00;99.90;;;;;;491556;242;28219;-76
2021/10/20 05:52:26;;;;;;;7.67;6.90;;;12.20;99.90;;;;;;491556;242;27954;-76
2021/10/20 05:54:28;;;;;;;7.27;6.47;;;12.20;99.90;;;;;;491595;241;28209;-76
2021/10/20 05:56:29;;;;;;;8.37;6.33;;;12.20;99.90;;;;;;491584;242;28292;-77
2021/10/20 05:58:30;;;;;;;7.47;6.20;;;12.10;99.90;;;;;;491568;242;28309;-76
2021/10/20 06:00:31;;;;;;;9.10;6.83;;;12.20;99.90;;;;;;491552;242;28241;-75
2021/10/20 06:02:33;;;;;;;7.43;6.73;;;12.30;99.90;;;;;;491579;242;28310;-76
2021/10/20 06:04:34;;;;;;;10.00;7.10;;;12.30;99.90;;;;;;491580;242;28204;-76
2021/10/20 06:06:35;;;;;;;8.23;6.40;;;12.40;99.90;;;;;;491576;242;28485;-76
2021/10/20 06:08:36;;;;;;;7.60;6.27;;;12.40;99.90;;;;;;491580;242;28777;-76
2021/10/20 06:10:38;;;;;;;7.47;6.67;;;12.30;99.90;;;;;;491560;242;28865;-76
2021/10/20 06:12:39;;;;;;;7.13;6.43;;;12.30;99.90;;;;;;491546;242;28127;-76
2021/10/20 06:14:40;;;;;;;7.87;6.40;;;12.40;99.90;;;;;;491543;242;28345;-76
2021/10/20 06:16:42;;;;;;;6.80;6.20;;;12.30;99.90;;;;;;491497;242;28273;-76
2021/10/20 06:18:43;;;;;;;6.00;5.40;;;12.30;99.90;;;;;;491494;242;28320;-76
2021/10/20 06:20:44;;;;;;;9.03;6.60;;;12.30;99.90;;;;;;491532;242;28140;-76
2021/10/20 06:22:45;;;;;;;8.30;6.70;;;12.40;99.90;;;;;;491551;242;28177;-76
2021/10/20 06:24:46;;;;;;;8.43;6.40;;;12.40;99.90;;;;;;491546;242;28453;-76
2021/10/20 06:26:48;;;;;;;6.07;5.57;;;12.40;99.90;;;;;;491530;242;28372;-76
2021/10/20 06:28:49;;;;;;;8.70;5.97;;;12.40;99.90;;;;;;491541;242;28872;-76
2021/10/20 06:30:50;;;;;;;6.63;6.00;;;12.40;99.90;;;;;;491530;242;28928;-77
2021/10/20 06:32:51;;;;;;;8.23;6.43;;;12.40;99.90;;;;;;491522;242;28632;-76
2021/10/20 06:34:53;;;;;;;6.40;5.80;;;12.50;99.90;;;;;;491542;242;28823;-76
2021/10/20 06:36:54;;;;;;;6.90;5.87;;;12.50;99.90;;;;;;491650;242;28174;-77
2021/10/20 06:38:55;;;;;;;8.37;6.07;;;12.50;99.90;;;;;;491786;242;28182;-76
2021/10/20 06:40:56;;;;;;;6.27;5.63;;;12.50;99.90;;;;;;491774;241;28232;-77
2021/10/20 06:42:58;;;;;;;6.33;5.73;;;12.50;99.90;;;;;;491861;242;28363;-77
2021/10/20 06:44:59;;;;;;;7.97;5.67;;;12.50;99.90;;;;;;491825;242;28432;-77
2021/10/20 06:47:00;;;;;;;7.63;5.93;;;12.50;99.90;;;;;;491800;242;28318;-76
2021/10/20 06:49:01;;;;;;;5.90;5.17;;;12.60;99.90;;;;;;491798;242;28195;-76
2021/10/20 06:51:03;;;;;;;6.97;6.23;;;12.60;99.90;;;;;;491815;242;28660;-76
2021/10/20 06:53:04;;;;;;;6.37;5.77;;;12.60;99.90;;;;;;491769;242;28601;-76
2021/10/20 06:55:05;;;;;;;6.13;5.30;;;12.60;99.90;;;;;;491647;242;28700;-77
2021/10/20 06:57:06;;;;;;;6.80;6.20;;;12.60;99.90;;;;;;491724;242;28763;-76
2021/10/20 06:59:08;;;;;;;6.43;5.30;;;12.70;99.90;;;;;;491778;242;28267;-76
2021/10/20 07:01:09;;;;;;;6.17;5.47;;;12.70;99.90;;;;;;491668;242;28095;-76
2021/10/20 07:03:10;;;;;;;9.00;5.23;;;12.80;99.90;;;;;;491648;242;28523;-76
2021/10/20 07:05:11;;;;;;;6.37;5.77;;;12.90;99.90;;;;;;491671;241;28309;-77
2021/10/20 07:07:13;;;;;;;6.27;5.67;;;12.90;99.90;;;;;;491678;242;28551;-76
2021/10/20 07:09:14;;;;;;;5.60;5.10;;;13.00;99.90;;;;;;491686;241;28249;-76
2021/10/20 07:11:15;;;;;;;6.20;5.60;;;13.10;99.90;;;;;;491861;242;28206;-76
2021/10/20 07:13:16;;;;;;;6.73;5.93;;;13.20;99.90;;;;;;491869;242;28376;-76
2021/10/20 07:15:18;;;;;;;7.30;5.80;;;13.30;99.90;;;;;;491910;241;28487;-77
2021/10/20 07:17:19;;;;;;;6.30;5.70;;;13.30;99.90;;;;;;491798;241;28504;-77
2021/10/20 07:19:20;;;;;;;6.07;5.57;;;13.30;99.90;;;;;;491878;241;28416;-77
2021/10/20 07:21:21;;;;;;;6.17;5.57;;;13.40;99.90;;;;;;491709;242;28605;-77
2021/10/20 07:23:23;;;;;;;6.10;5.20;;;13.50;99.90;;;;;;491788;241;28798;-77
2021/10/20 07:25:24;;;;;;;6.17;5.57;;;13.50;99.90;;;;;;491763;241;28057;-76
2021/10/20 07:27:25;;;;;;;6.60;5.90;;;13.50;99.90;;;;;;491786;242;28431;-76
2021/10/20 07:29:26;;;;;;;5.93;5.30;;;13.60;99.90;;;;;;491768;242;28246;-76
2021/10/20 07:31:31;;;;;;;6.00;5.30;;;13.60;99.90;;;;;;491745;242;28309;-77
2021/10/20 07:33:32;;;;;;;6.30;5.63;;;13.70;99.90;;;;;;491710;241;28527;-77
2021/10/20 07:35:33;;;;;;;6.57;5.80;;;13.70;99.90;;;;;;491737;242;28412;-77
2021/10/20 07:37:34;;;;;;;5.77;5.27;;;13.70;99.90;;;;;;491724;241;28346;-76
2021/10/20 07:39:36;;;;;;;5.90;5.30;;;13.70;99.90;;;;;;491721;242;28211;-77
2021/10/20 07:41:37;;;;;;;5.10;4.70;;;13.70;99.90;;;;;;491750;242;29002;-76
2021/10/20 07:43:38;;;;;;;6.00;5.40;;;13.60;99.90;;;;;;491749;242;28859;-76
2021/10/20 07:45:39;;;;;;;5.87;5.37;;;13.60;99.90;;;;;;491726;241;28893;-76
2021/10/20 07:47:41;;;;;;;7.70;4.90;;;13.60;99.90;;;;;;491702;242;28174;-76
2021/10/20 07:49:42;;;;;;;5.50;5.00;;;13.60;99.90;;;;;;491724;242;28628;-77
2021/10/20 07:51:43;;;;;;;4.90;4.50;;;13.60;99.90;;;;;;491714;242;28321;-77
2021/10/20 07:53:44;;;;;;;5.67;5.17;;;13.70;99.90;;;;;;491674;242;28515;-76
2021/10/20 07:55:46;;;;;;;6.00;5.30;;;13.70;99.90;;;;;;491722;242;28511;-76
2021/10/20 07:57:47;;;;;;;5.57;5.07;;;13.80;99.90;;;;;;491765;242;28812;-76
2021/10/20 07:59:48;;;;;;;5.30;4.80;;;13.90;99.90;;;;;;491790;241;28346;-76
2021/10/20 08:01:49;;;;;;;5.70;5.20;;;14.00;99.90;;;;;;491762;242;28879;-77
2021/10/20 08:03:51;;;;;;;6.37;5.30;;;14.00;99.90;;;;;;491676;241;28809;-77
2021/10/20 08:05:53;;;;;;;5.50;5.00;;;;;;;;;;491693;241;28216;-76
2021/10/20 08:07:54;;;;;;;5.73;5.10;;;14.20;99.90;;;;;;491733;241;26717;-76
2021/10/20 08:09:55;;;;;;;5.00;4.57;;;14.30;99.90;;;;;;491731;242;28187;-77
2021/10/20 08:11:57;;;;;;;5.13;4.63;;;14.40;99.90;;;;;;491723;242;28195;-76
2021/10/20 08:13:58;;;;;;;5.27;4.70;;;14.50;99.90;;;;;;491692;242;28297;-76
2021/10/20 08:15:59;;;;;;;6.50;5.60;;;14.60;99.90;;;;;;491685;242;28701;-76
2021/10/20 08:18:04;;;;;;;5.70;5.17;;;14.90;99.90;;;;;;491592;241;28763;-76
2021/10/20 08:20:07;;;;;;;5.90;5.00;;;;;;;;;;491685;241;28438;-76
2021/10/20 08:22:08;;;;;;;5.87;5.20;;;14.50;99.90;;;;;;491645;242;26386;-76
2021/10/20 08:24:10;;;;;;;5.57;4.97;;;14.90;99.90;;;;;;491566;241;28278;-76
2021/10/20 08:26:12;;;;;;;6.40;4.90;;;;;;;;;;491634;241;28231;-77
2021/10/20 08:28:13;;;;;;;6.30;5.27;;;14.50;99.90;;;;;;491642;242;26457;-76
2021/10/20 08:30:18;;;;;;;5.37;4.87;;;14.50;99.90;;;;;;491641;242;28858;-76
2021/10/20 08:32:20;;;;;;;4.77;4.37;;;;;;;;;;491670;242;28343;-76
2021/10/20 08:34:22;;;;;;;6.60;4.83;;;14.60;99.90;;;;;;491644;241;27642;-76
2021/10/20 08:36:23;;;;;;;6.17;4.73;;;14.60;99.90;;;;;;491624;242;28341;-77
2021/10/20 08:38:23;;;;;;;5.07;4.57;;;14.70;99.90;;;;;;491634;242;28419;-77
2021/10/20 08:40:25;;;;;;;5.57;5.07;;;14.80;99.90;;;;;;491664;241;28770;-76
2021/10/20 08:42:26;;;;;;;5.20;4.70;;;14.80;99.90;;;;;;491658;242;29291;-76
2021/10/20 08:44:27;;;;;;;4.37;3.97;;;14.80;99.90;;;;;;491666;242;28906;-76
2021/10/20 08:46:28;;;;;;;5.60;4.33;;;14.80;99.90;;;;;;491698;242;28531;-77
2021/10/20 08:48:30;;;;;;;5.60;5.00;;;14.90;99.90;;;;;;491690;241;28801;-76
2021/10/20 08:50:31;;;;;;;5.10;4.60;;;14.90;99.90;;;;;;491653;242;28639;-77
2021/10/20 08:52:32;;;;;;;5.20;4.70;;;15.00;99.90;;;;;;491687;241;28383;-76
2021/10/20 08:54:33;;;;;;;5.43;4.93;;;15.10;99.90;;;;;;491627;241;28945;-77
2021/10/20 08:56:35;;;;;;;6.50;4.53;;;15.20;99.90;;;;;;491684;242;28954;-76
2021/10/20 08:58:36;;;;;;;6.70;5.57;;;15.20;99.90;;;;;;491654;242;28513;-76
2021/10/20 09:00:37;;;;;;;5.43;4.80;;;15.20;99.90;;;;;;491666;242;28839;-76
2021/10/20 09:02:40;;;;;;;5.10;4.70;;;15.30;99.90;;;;;;491640;241;30456;-77
2021/10/20 09:04:40;;;;;;;8.00;5.20;;;15.20;99.90;;;;;;491545;242;29346;-76
2021/10/20 09:06:41;;;;;;;5.50;5.00;;;15.30;99.90;;;;;;491630;242;29328;-76
2021/10/20 09:08:42;;;;;;;6.77;5.07;;;15.30;99.90;;;;;;491646;242;29046;-77
2021/10/20 09:10:43;;;;;;;5.93;4.30;;;15.40;99.90;;;;;;491599;241;28868;-76
2021/10/20 09:12:46;;;;;;;5.50;4.80;;;15.30;99.90;;;;;;491587;241;28873;-76
2021/10/20 09:14:46;;;;;;;5.20;4.70;;;15.40;99.90;;;;;;491570;242;28791;-76
2021/10/20 09:16:47;;;;;;;5.60;4.17;;;15.40;99.90;;;;;;491582;242;28881;-76
2021/10/20 09:18:48;;;;;;;6.60;4.87;;;15.40;99.90;;;;;;491600;241;28591;-76
2021/10/20 09:20:51;;;;;;;5.30;4.50;;;15.60;99.90;;;;;;491529;242;28841;-76
2021/10/20 09:22:53;;;;;;;5.03;4.63;;;15.60;99.90;;;;;;491461;242;29213;-76
2021/10/20 09:24:52;;;;;;;8.97;5.07;;;15.70;99.90;;;;;;491462;242;28771;-76
2021/10/20 09:26:53;;;;;;;5.00;4.50;;;15.80;99.90;;;;;;491586;242;28939;-76
2021/10/20 09:28:55;;;;;;;5.03;4.63;;;15.90;99.90;;;;;;491607;241;29397;-76
2021/10/20 09:31:01;;;;;;;4.80;4.40;;;16.00;99.90;;;;;;491592;242;29338;-77
2021/10/20 09:32:58;;;;;;;5.30;4.80;;;16.10;99.90;;;;;;491242;242;29308;-76
2021/10/20 09:34:58;;;;;;;5.70;5.10;;;16.20;99.90;;;;;;491534;242;28886;-76
2021/10/20 09:37:00;;;;;;;5.00;4.50;;;16.20;99.90;;;;;;491597;242;28905;-75
2021/10/20 09:39:01;;;;;;;7.90;4.40;;;16.20;99.90;;;;;;491568;242;28832;-75
2021/10/20 09:41:02;;;;;;;4.63;4.23;;;16.10;99.90;;;;;;491583;242;28906;-76
2021/10/20 09:43:04;;;;;;;6.27;4.50;;;16.20;99.90;;;;;;491584;241;28956;-75
2021/10/20 09:45:05;;;;;;;5.23;4.83;;;16.20;99.90;;;;;;491580;242;28735;-76
2021/10/20 09:47:06;;;;;;;6.60;4.77;;;16.20;99.90;;;;;;491578;242;28833;-76
2021/10/20 09:49:07;;;;;;;5.70;4.63;;;16.20;99.90;;;;;;491587;241;28919;-76
2021/10/20 09:51:09;;;;;;;9.70;4.73;;;16.20;99.90;;;;;;491560;241;29348;-75
2021/10/20 09:53:10;;;;;;;5.93;4.50;;;16.20;99.90;;;;;;491584;242;29413;-75
2021/10/20 09:55:11;;;;;;;6.30;4.70;;;16.20;99.90;;;;;;491563;241;29292;-76
2021/10/20 09:57:12;;;;;;;8.20;4.70;;;16.20;99.90;;;;;;491453;242;29368;-76
2021/10/20 09:59:14;;;;;;;5.83;4.87;;;16.20;99.90;;;;;;491469;242;28866;-76
2021/10/20 10:01:15;;;;;;;5.63;5.13;;;16.20;99.90;;;;;;491475;242;28807;-76
2021/10/20 10:03:16;;;;;;;5.60;4.80;;;16.30;99.90;;;;;;491550;242;28850;-76
2021/10/20 10:05:17;;;;;;;4.83;4.33;;;16.30;99.90;;;;;;491544;242;28813;-76
2021/10/20 10:07:19;;;;;;;5.10;4.60;;;16.40;99.90;;;;;;491543;242;28850;-76
2021/10/20 10:09:20;;;;;;;5.10;4.70;;;16.50;99.90;;;;;;491371;242;28857;-76
2021/10/20 10:11:21;;;;;;;4.87;4.47;;;16.60;99.90;;;;;;491430;242;28842;-76
2021/10/20 10:13:22;;;;;;;5.33;4.40;;;16.70;99.90;;;;;;491536;242;28874;-76
2021/10/20 10:15:24;;;;;;;4.57;4.17;;;16.80;99.90;;;;;;491468;242;29372;-76
2021/10/20 10:17:25;;;;;;;5.23;4.73;;;16.80;99.90;;;;;;491531;242;29301;-76
2021/10/20 10:19:26;;;;;;;5.27;4.13;;;16.70;99.90;;;;;;491485;242;29395;-75
2021/10/20 10:21:27;;;;;;;4.80;4.30;;;16.70;99.90;;;;;;490953;242;29370;-75
2021/10/20 10:23:30;;;;;;;5.10;4.43;;;16.80;99.90;;;;;;491486;242;28870;-76
2021/10/20 10:25:30;;;;;;;4.30;3.90;;;16.80;99.90;;;;;;491458;242;28723;-76
2021/10/20 10:27:31;;;;;;;4.73;4.33;;;16.70;99.90;;;;;;491385;242;28848;-76
2021/10/20 10:29:33;;;;;;;4.27;3.87;;;16.70;99.90;;;;;;491516;242;28837;-76
2021/10/20 10:31:34;;;;;;;4.53;4.00;;;16.60;99.90;;;;;;491513;242;28909;-76